createdAt,value
2019-06-01T00:01:15.900Z,63.91
2019-06-01T00:03:46.471Z,63.17
2019-06-01T00:06:16.255Z,63.36
2019-06-01T00:08:47.129Z,63.86
2019-06-01T00:11:16.900Z,64.55
2019-06-01T00:13:47.567Z,64.99
2019-06-01T00:16:17.365Z,65.07
2019-06-01T00:18:48.226Z,64.95
2019-06-01T00:21:18.119Z,64.55
2019-06-01T00:23:48.717Z,64.94
2019-06-01T00:26:18.575Z,64.97
2019-06-01T00:28:48.277Z,64.79
2019-06-01T00:31:17.934Z,64.51
2019-06-01T00:33:47.690Z,63.80
2019-06-01T00:36:17.370Z,63.70
2019-06-01T00:38:47.886Z,64.61
2019-06-01T00:41:17.616Z,64.72
2019-06-01T00:43:48.716Z,65.01
2019-06-01T00:46:18.565Z,65.17
2019-06-01T00:48:49.874Z,64.05
2019-06-01T00:51:19.659Z,64.76
2019-06-01T00:53:49.714Z,64.70
2019-06-01T00:56:19.486Z,65.25
2019-06-01T00:58:49.827Z,65.24
2019-06-01T01:01:19.661Z,64.95
2019-06-01T01:03:50.199Z,65.33
2019-06-01T01:06:20.018Z,63.23
2019-06-01T01:08:50.615Z,63.98
2019-06-01T01:11:20.665Z,65.13
2019-06-01T01:13:51.287Z,65.44
2019-06-01T01:16:21.094Z,65.07
2019-06-01T01:18:51.847Z,64.39
2019-06-01T01:21:21.613Z,64.91
2019-06-01T01:23:52.953Z,65.68
2019-06-01T01:26:22.615Z,65.77
2019-06-01T01:28:52.971Z,64.81
2019-06-01T01:31:22.770Z,65.13
2019-06-01T01:33:53.373Z,64.92
2019-06-01T01:36:23.081Z,64.41
2019-06-01T01:38:54.230Z,64.09
2019-06-01T01:41:24.028Z,65.34
2019-06-01T01:43:54.627Z,66.40
2019-06-01T01:46:24.375Z,65.94
2019-06-01T01:48:54.299Z,67.34
2019-06-01T01:51:23.990Z,67.55
2019-06-01T01:53:54.722Z,67.19
2019-06-01T01:56:24.426Z,66.85
2019-06-01T01:58:54.359Z,67.18
2019-06-01T02:01:24.076Z,67.54
2019-06-01T02:03:55.364Z,67.30
2019-06-01T02:06:28.814Z,66.93
2019-06-01T02:08:57.124Z,66.64
2019-06-01T02:11:26.903Z,66.64
2019-06-01T02:13:57.715Z,66.34
2019-06-01T02:16:27.552Z,66.43
2019-06-01T02:18:58.743Z,66.09
2019-06-01T02:21:28.611Z,66.15
2019-06-01T02:23:59.028Z,65.33
2019-06-01T02:26:28.860Z,65.89
2019-06-01T02:28:59.447Z,66.36
2019-06-01T02:31:41.044Z,65.88
2019-06-01T02:34:01.601Z,65.08
2019-06-01T02:36:32.092Z,66.24
2019-06-01T02:39:03.215Z,66.46
2019-06-01T02:41:33.068Z,66.15
2019-06-01T02:44:03.909Z,66.79
2019-06-01T02:46:35.714Z,66.42
2019-06-01T02:49:06.318Z,65.25
2019-06-01T02:51:36.095Z,65.83
2019-06-01T02:54:06.352Z,67.09
2019-06-01T02:56:36.147Z,67.27
2019-06-01T02:59:06.787Z,65.88
2019-06-01T03:01:39.010Z,66.77
2019-06-01T03:04:10.467Z,67.35
2019-06-01T03:06:43.355Z,66.56
2019-06-01T03:09:13.613Z,65.89
2019-06-01T03:11:43.869Z,67.37
2019-06-01T03:14:14.011Z,67.55
2019-06-01T03:16:44.879Z,67.60
2019-06-01T03:19:18.682Z,67.35
2019-06-01T03:21:51.681Z,66.98
2019-06-01T03:24:25.485Z,66.73
2019-06-01T03:26:56.141Z,66.79
2019-06-01T03:29:30.617Z,66.39
2019-06-01T03:32:19.212Z,66.61
2019-06-01T03:34:31.721Z,65.93
2019-06-01T03:37:02.864Z,66.47
2019-06-01T03:39:33.284Z,66.99
2019-06-01T03:42:03.341Z,66.90
2019-06-01T03:44:33.214Z,67.39
2019-06-01T03:47:03.864Z,66.11
2019-06-01T03:49:33.558Z,65.79
2019-06-01T03:52:03.269Z,66.63
2019-06-01T03:54:32.892Z,66.99
2019-06-01T03:57:03.722Z,66.41
2019-06-01T03:59:33.782Z,66.32
2019-06-01T04:02:05.006Z,66.25
2019-06-01T04:04:34.795Z,66.69
2019-06-01T04:07:04.784Z,66.29
2019-06-01T04:09:34.429Z,65.77
2019-06-01T04:12:04.123Z,66.37
2019-06-01T04:14:33.764Z,69.30
2019-06-01T04:17:04.153Z,69.80
2019-06-01T04:19:33.888Z,69.81
2019-06-01T04:22:04.075Z,69.46
2019-06-01T04:24:33.861Z,69.03
2019-06-01T04:27:04.127Z,69.02
2019-06-01T04:29:33.918Z,69.03
2019-06-01T04:32:04.511Z,69.05
2019-06-01T04:34:35.803Z,69.25
2019-06-01T04:37:07.000Z,69.21
2019-06-01T04:39:36.768Z,69.22
2019-06-01T04:42:07.691Z,69.77
2019-06-01T04:44:37.436Z,69.82
2019-06-01T04:47:09.127Z,69.50
2019-06-01T04:49:38.488Z,69.49
2019-06-01T04:52:08.864Z,69.64
2019-06-01T04:54:38.638Z,69.82
2019-06-01T04:57:08.906Z,69.60
2019-06-01T04:59:38.662Z,69.49
2019-06-01T05:02:09.277Z,69.49
2019-06-01T05:04:39.080Z,69.73
2019-06-01T05:07:09.288Z,69.54
2019-06-01T05:09:39.018Z,69.93
2019-06-01T05:12:09.349Z,69.75
2019-06-01T05:14:39.065Z,69.88
2019-06-01T05:17:10.068Z,70.04
2019-06-01T05:19:40.010Z,69.86
2019-06-01T05:22:10.513Z,69.77
2019-06-01T05:24:40.296Z,70.25
2019-06-01T05:27:11.156Z,70.29
2019-06-01T05:29:40.804Z,69.97
2019-06-01T05:32:10.503Z,70.11
2019-06-01T05:34:40.152Z,70.10
2019-06-01T05:37:10.749Z,70.39
2019-06-01T05:39:40.803Z,70.39
2019-06-01T05:42:10.689Z,70.12
2019-06-01T05:44:40.344Z,70.22
2019-06-01T05:47:10.259Z,70.15
2019-06-01T05:49:39.875Z,70.09
2019-06-01T05:52:10.366Z,70.24
2019-06-01T05:54:40.138Z,69.98
2019-06-01T05:57:10.489Z,70.12
2019-06-01T05:59:40.383Z,70.25
2019-06-01T06:02:11.080Z,70.32
2019-06-01T06:04:41.012Z,70.55
2019-06-01T06:07:10.729Z,70.73
2019-06-01T06:09:40.459Z,70.22
2019-06-01T06:12:11.254Z,70.36
2019-06-01T06:14:40.930Z,70.88
2019-06-01T06:17:12.865Z,70.96
2019-06-01T06:19:42.036Z,70.36
2019-06-01T06:22:12.021Z,70.76
2019-06-01T06:24:41.688Z,70.56
2019-06-01T06:27:12.348Z,70.40
2019-06-01T06:29:44.015Z,70.68
2019-06-01T06:32:13.704Z,71.22
2019-06-01T06:34:43.332Z,71.15
2019-06-01T06:37:13.475Z,70.25
2019-06-01T06:39:43.189Z,70.41
2019-06-01T06:42:13.991Z,70.53
2019-06-01T06:44:43.734Z,70.99
2019-06-01T06:47:14.623Z,70.28
2019-06-01T06:49:44.391Z,70.13
2019-06-01T06:52:15.145Z,70.28
2019-06-01T06:54:44.834Z,71.00
2019-06-01T06:57:14.450Z,71.59
2019-06-01T06:59:44.090Z,71.07
2019-06-01T07:02:13.725Z,72.33
2019-06-01T07:04:43.381Z,70.99
2019-06-01T07:07:13.014Z,70.47
2019-06-01T07:09:42.802Z,70.01
2019-06-01T07:12:12.837Z,70.04
2019-06-01T07:14:42.529Z,69.98
2019-06-01T07:17:15.540Z,69.54
2019-06-01T07:19:43.520Z,69.47
2019-06-01T07:22:16.306Z,69.02
2019-06-01T07:24:44.509Z,69.10
2019-06-01T07:27:14.181Z,69.54
2019-06-01T07:29:43.798Z,69.17
2019-06-01T07:32:13.420Z,69.05
2019-06-01T07:34:43.756Z,68.60
2019-06-01T07:37:13.378Z,68.03
2019-06-01T07:39:43.041Z,67.43
2019-06-01T07:42:12.711Z,68.08
2019-06-01T07:44:42.397Z,68.30
2019-06-01T07:47:12.026Z,68.09
2019-06-01T07:49:41.667Z,66.64
2019-06-01T07:52:13.397Z,66.31
2019-06-01T07:54:42.742Z,66.46
2019-06-01T07:57:12.427Z,65.86
2019-06-01T07:59:42.049Z,65.32
2019-06-01T08:02:11.769Z,65.69
2019-06-01T08:04:53.185Z,66.12
2019-06-01T08:07:12.770Z,66.35
2019-06-01T08:09:42.391Z,66.98
2019-06-01T08:12:12.027Z,66.44
2019-06-01T08:14:41.649Z,66.28
2019-06-01T08:17:11.304Z,65.74
2019-06-01T08:19:40.923Z,64.92
2019-06-01T08:22:10.653Z,65.31
2019-06-01T08:24:40.265Z,63.35
2019-06-01T08:27:09.927Z,63.24
2019-06-01T08:29:39.572Z,62.62
2019-06-01T08:32:09.183Z,63.46
2019-06-01T08:34:38.828Z,63.49
2019-06-01T08:37:08.453Z,63.38
2019-06-01T08:39:38.095Z,62.52
2019-06-01T08:42:07.802Z,62.82
2019-06-01T08:44:37.503Z,63.68
2019-06-01T08:47:07.132Z,62.35
2019-06-01T08:49:36.793Z,62.80
2019-06-01T08:52:06.591Z,62.13
2019-06-01T08:54:36.270Z,61.93
2019-06-01T08:57:05.984Z,62.08
2019-06-01T08:59:35.611Z,60.32
2019-06-01T09:02:05.324Z,60.76
2019-06-01T09:04:35.044Z,59.63
2019-06-01T09:07:04.808Z,59.82
2019-06-01T09:09:35.205Z,58.75
2019-06-01T09:12:05.306Z,58.80
2019-06-01T09:14:35.570Z,57.33
2019-06-01T09:17:05.359Z,58.87
2019-06-01T09:19:35.738Z,59.15
2019-06-01T09:22:05.546Z,58.89
2019-06-01T09:24:36.164Z,57.20
2019-06-01T09:27:06.075Z,56.72
2019-06-01T09:29:36.215Z,56.63
2019-06-01T09:32:10.547Z,56.45
2019-06-01T09:34:37.429Z,55.87
2019-06-01T09:37:07.111Z,55.95
2019-06-01T09:39:37.278Z,54.99
2019-06-01T09:42:07.159Z,53.50
2019-06-01T09:44:37.329Z,54.08
2019-06-01T09:47:07.980Z,52.79
2019-06-01T09:49:38.009Z,52.54
2019-06-01T09:52:12.023Z,54.48
2019-06-01T09:54:39.180Z,52.73
2019-06-01T09:57:08.885Z,51.69
2019-06-01T09:59:38.583Z,51.82
2019-06-01T10:02:08.468Z,52.07
2019-06-01T10:04:38.860Z,50.86
2019-06-01T10:07:08.645Z,50.32
2019-06-01T10:09:38.270Z,51.48
2019-06-01T10:12:08.007Z,49.97
2019-06-01T10:14:39.286Z,50.52
2019-06-01T10:17:09.303Z,50.69
2019-06-01T10:19:38.998Z,50.38
2019-06-01T10:22:08.656Z,49.93
2019-06-01T10:24:39.301Z,50.52
2019-06-01T10:27:09.002Z,49.31
2019-06-01T10:29:39.982Z,48.92
2019-06-01T10:32:09.791Z,48.82
2019-06-01T10:34:39.908Z,48.35
2019-06-01T10:37:09.742Z,48.10
2019-06-01T10:39:39.522Z,48.76
2019-06-01T10:42:09.169Z,48.16
2019-06-01T10:44:45.020Z,47.69
2019-06-01T10:47:10.165Z,46.71
2019-06-01T10:49:40.132Z,48.04
2019-06-01T10:52:10.099Z,47.73
2019-06-01T10:54:40.281Z,46.86
2019-06-01T10:57:10.016Z,47.60
2019-06-01T10:59:40.549Z,48.07
2019-06-01T11:02:10.333Z,47.93
2019-06-01T11:04:41.136Z,48.21
2019-06-01T11:07:10.891Z,48.01
2019-06-01T11:09:41.199Z,47.33
2019-06-01T11:12:10.876Z,48.18
2019-06-01T11:14:41.272Z,48.43
2019-06-01T11:17:11.088Z,46.68
2019-06-01T11:19:42.047Z,46.59
2019-06-01T11:22:11.798Z,47.55
2019-06-01T11:24:41.676Z,46.66
2019-06-01T11:27:11.446Z,45.68
2019-06-01T11:29:48.265Z,46.46
2019-06-01T11:32:12.526Z,46.54
2019-06-01T11:34:42.496Z,44.48
2019-06-01T11:37:15.227Z,44.25
2019-06-01T11:39:44.806Z,44.35
2019-06-01T11:42:14.704Z,45.59
2019-06-01T11:44:44.886Z,42.96
2019-06-01T11:47:14.979Z,42.98
2019-06-01T11:49:45.113Z,41.96
2019-06-01T11:52:14.850Z,43.35
2019-06-01T11:54:45.448Z,42.56
2019-06-01T11:57:15.208Z,42.54
2019-06-01T11:59:45.687Z,42.88
2019-06-01T12:02:15.695Z,40.82
2019-06-01T12:04:46.367Z,42.25
2019-06-01T12:07:17.989Z,42.38
2019-06-01T12:09:47.476Z,43.85
2019-06-01T12:12:17.100Z,41.32
2019-06-01T12:14:46.884Z,41.57
2019-06-01T12:17:16.533Z,40.86
2019-06-01T12:19:46.992Z,40.68
2019-06-01T12:22:16.782Z,39.96
2019-06-01T12:24:47.372Z,40.20
2019-06-01T12:27:17.129Z,38.83
2019-06-01T12:29:48.271Z,38.97
2019-06-01T12:32:18.128Z,38.53
2019-06-01T12:34:48.497Z,38.56
2019-06-01T12:37:36.090Z,38.64
2019-06-01T12:39:52.849Z,38.05
2019-06-01T12:42:21.150Z,39.33
2019-06-01T12:44:51.825Z,39.41
2019-06-01T12:47:21.771Z,38.59
2019-06-01T12:49:52.697Z,37.79
2019-06-01T12:52:22.532Z,36.59
2019-06-01T12:54:53.108Z,37.82
2019-06-01T12:57:22.971Z,37.94
2019-06-01T12:59:53.153Z,39.54
2019-06-01T13:02:22.894Z,36.73
2019-06-01T13:04:53.087Z,37.28
2019-06-01T13:07:22.947Z,37.07
2019-06-01T13:09:53.171Z,36.85
2019-06-01T13:12:22.793Z,36.19
2019-06-01T13:14:52.608Z,36.60
2019-06-01T13:17:22.303Z,36.54
2019-06-01T13:19:52.019Z,35.10
2019-06-01T13:22:21.650Z,36.18
2019-06-01T13:24:52.040Z,36.17
2019-06-01T13:27:21.837Z,36.45
2019-06-01T13:29:52.284Z,36.31
2019-06-01T13:32:22.069Z,35.57
2019-06-01T13:34:51.709Z,34.95
2019-06-01T13:37:21.353Z,36.58
2019-06-01T13:39:56.413Z,35.46
2019-06-01T13:42:22.357Z,37.29
2019-06-01T13:44:52.053Z,33.35
2019-06-01T13:47:21.775Z,34.52
2019-06-01T13:49:51.908Z,34.22
2019-06-01T13:52:21.687Z,34.49
2019-06-01T13:54:52.443Z,35.42
2019-06-01T13:57:22.126Z,35.11
2019-06-01T13:59:52.955Z,34.23
2019-06-01T14:02:22.795Z,33.31
2019-06-01T14:04:52.444Z,33.41
2019-06-01T14:07:22.075Z,33.16
2019-06-01T14:09:52.516Z,35.75
2019-06-01T14:12:23.153Z,33.96
2019-06-01T14:14:53.565Z,33.15
2019-06-01T14:17:23.266Z,33.75
2019-06-01T14:19:53.854Z,34.38
2019-06-01T14:22:23.671Z,33.47
2019-06-01T14:25:08.399Z,33.78
2019-06-01T14:27:24.785Z,34.76
2019-06-01T14:29:54.494Z,34.42
2019-06-01T14:32:24.139Z,34.52
2019-06-01T14:34:54.893Z,33.98
2019-06-01T14:37:24.684Z,32.95
2019-06-01T14:39:57.103Z,32.76
2019-06-01T14:42:26.831Z,34.54
2019-06-01T14:44:57.761Z,35.03
2019-06-01T14:47:27.802Z,35.09
2019-06-01T14:49:57.829Z,34.16
2019-06-01T14:52:30.392Z,32.45
2019-06-01T14:55:00.049Z,33.74
2019-06-01T14:57:29.673Z,33.90
2019-06-01T14:59:59.312Z,34.04
2019-06-01T15:02:29.006Z,34.45
2019-06-01T15:04:58.737Z,35.07
2019-06-01T15:07:28.367Z,34.87
2019-06-01T15:09:58.441Z,33.69
2019-06-01T15:12:28.212Z,33.78
2019-06-01T15:14:57.878Z,33.92
2019-06-01T15:17:27.585Z,33.34
2019-06-01T15:19:58.305Z,34.85
2019-06-01T15:22:28.031Z,33.09
2019-06-01T15:24:58.435Z,33.73
2019-06-01T15:27:28.202Z,34.46
2019-06-01T15:29:59.019Z,33.33
2019-06-01T15:32:28.755Z,32.94
2019-06-01T15:34:59.831Z,33.62
2019-06-01T15:37:29.742Z,33.96
2019-06-01T15:39:59.413Z,34.08
2019-06-01T15:42:29.036Z,33.24
2019-06-01T15:44:59.254Z,33.72
2019-06-01T15:47:28.990Z,33.93
2019-06-01T15:49:59.985Z,34.83
2019-06-01T15:52:29.737Z,34.82
2019-06-01T15:55:00.481Z,34.68
2019-06-01T15:57:30.189Z,35.71
2019-06-01T16:00:00.648Z,34.02
2019-06-01T16:02:30.434Z,32.81
2019-06-01T16:05:01.306Z,31.31
2019-06-01T16:07:31.183Z,31.87
2019-06-01T16:10:06.565Z,30.21
2019-06-01T16:12:32.208Z,29.68
2019-06-01T16:15:02.216Z,30.08
2019-06-01T16:17:32.023Z,29.26
2019-06-01T16:20:02.345Z,29.73
2019-06-01T16:22:32.167Z,29.83
2019-06-01T16:25:02.573Z,30.85
2019-06-01T16:27:32.312Z,30.55
2019-06-01T16:30:03.826Z,30.85
2019-06-01T16:32:33.303Z,30.64
2019-06-01T16:35:03.174Z,31.49
2019-06-01T16:37:32.794Z,31.54
2019-06-01T16:40:05.100Z,31.52
2019-06-01T16:42:33.786Z,32.21
2019-06-01T16:45:04.206Z,32.84
2019-06-01T16:47:33.816Z,33.81
2019-06-01T16:50:04.294Z,33.24
2019-06-01T16:52:33.989Z,33.32
2019-06-01T16:55:05.012Z,34.42
2019-06-01T16:57:35.382Z,34.88
2019-06-01T17:00:10.926Z,33.69
2019-06-01T17:02:40.689Z,33.24
2019-06-01T17:05:12.262Z,33.80
2019-06-01T17:07:41.881Z,34.42
2019-06-01T17:10:25.647Z,34.32
2019-06-01T17:12:45.316Z,34.34
2019-06-01T17:15:17.655Z,34.55
2019-06-01T17:17:47.365Z,35.02
2019-06-01T17:20:41.020Z,35.37
2019-06-01T17:23:26.285Z,36.61
2019-06-01T17:25:42.299Z,36.60
2019-06-01T17:28:12.086Z,36.35
2019-06-01T17:30:41.839Z,37.16
2019-06-01T17:33:11.631Z,37.24
2019-06-01T17:35:41.963Z,37.85
2019-06-01T17:38:12.203Z,38.26
2019-06-01T17:40:43.397Z,37.62
2019-06-01T17:43:15.101Z,38.01
2019-06-01T17:45:44.840Z,38.46
2019-06-01T17:48:25.618Z,39.02
2019-06-01T17:50:45.853Z,39.96
2019-06-01T17:53:15.507Z,40.32
2019-06-01T17:55:45.342Z,41.12
2019-06-01T17:58:15.092Z,41.04
2019-06-01T18:00:44.903Z,42.38
2019-06-01T18:03:14.580Z,42.74
2019-06-01T18:05:44.532Z,42.67
2019-06-01T18:08:14.708Z,43.25
2019-06-01T18:10:53.989Z,43.64
2019-06-01T18:13:16.068Z,44.79
2019-06-01T18:15:49.305Z,45.33
2019-06-01T18:18:17.273Z,45.53
2019-06-01T18:20:47.125Z,45.33
2019-06-01T18:23:16.775Z,45.44
2019-06-01T18:25:46.531Z,44.89
2019-06-01T18:28:19.588Z,45.86
2019-06-01T18:30:49.118Z,45.78
2019-06-01T18:33:19.032Z,46.06
2019-06-01T18:35:48.653Z,46.01
2019-06-01T18:38:18.447Z,46.09
2019-06-01T18:40:48.208Z,46.34
2019-06-01T18:43:19.818Z,46.33
2019-06-01T18:45:50.046Z,46.45
2019-06-01T18:48:20.975Z,46.80
2019-06-01T18:50:50.696Z,46.65
2019-06-01T18:53:20.389Z,46.79
2019-06-01T18:55:50.110Z,47.11
2019-06-01T18:58:19.793Z,46.62
2019-06-01T19:00:49.513Z,47.56
2019-06-01T19:03:19.209Z,48.56
2019-06-01T19:05:48.849Z,49.39
2019-06-01T19:08:18.470Z,49.88
2019-06-01T19:10:49.191Z,50.39
2019-06-01T19:13:19.373Z,49.71
2019-06-01T19:15:49.077Z,50.43
2019-06-01T19:18:18.711Z,51.19
2019-06-01T19:20:48.382Z,50.90
2019-06-01T19:23:21.803Z,51.32
2019-06-01T19:25:49.433Z,51.57
2019-06-01T19:28:19.087Z,52.35
2019-06-01T19:30:48.963Z,52.20
2019-06-01T19:33:19.491Z,52.55
2019-06-01T19:35:52.685Z,52.35
2019-06-01T19:38:22.874Z,51.88
2019-06-01T19:40:52.519Z,52.05
2019-06-01T19:43:22.170Z,51.85
2019-06-01T19:45:51.791Z,52.07
2019-06-01T19:48:21.460Z,50.24
2019-06-01T19:50:51.074Z,51.47
2019-06-01T19:53:20.699Z,52.20
2019-06-01T19:55:50.351Z,52.46
2019-06-01T19:58:20.000Z,52.18
2019-06-01T20:00:49.692Z,51.90
2019-06-01T20:03:22.039Z,51.61
2019-06-01T20:05:50.701Z,52.63
2019-06-01T20:08:20.317Z,51.70
2019-06-01T20:10:49.993Z,51.60
2019-06-01T20:13:19.604Z,51.08
2019-06-01T20:15:49.233Z,52.57
2019-06-01T20:18:19.174Z,53.00
2019-06-01T20:20:48.979Z,52.25
2019-06-01T20:23:19.531Z,53.30
2019-06-01T20:25:49.322Z,53.06
2019-06-01T20:28:19.656Z,54.15
2019-06-01T20:30:49.486Z,53.93
2019-06-01T20:33:20.441Z,54.34
2019-06-01T20:35:50.328Z,53.99
2019-06-01T20:38:20.501Z,54.07
2019-06-01T20:40:50.274Z,53.42
2019-06-01T20:43:20.846Z,53.53
2019-06-01T20:45:50.752Z,53.91
2019-06-01T20:48:20.889Z,53.87
2019-06-01T20:50:50.820Z,54.97
2019-06-01T20:53:21.009Z,54.85
2019-06-01T20:55:50.832Z,54.96
2019-06-01T20:58:22.032Z,54.94
2019-06-01T21:00:51.904Z,53.95
2019-06-01T21:03:21.904Z,55.51
2019-06-01T21:05:51.744Z,55.19
2019-06-01T21:08:22.416Z,55.29
2019-06-01T21:10:52.269Z,55.19
2019-06-01T21:13:22.313Z,54.50
2019-06-01T21:15:52.503Z,55.38
2019-06-01T21:18:22.658Z,55.77
2019-06-01T21:20:52.505Z,56.03
2019-06-01T21:23:23.061Z,55.73
2019-06-01T21:25:52.768Z,54.54
2019-06-01T21:28:23.694Z,55.41
2019-06-01T21:30:53.811Z,55.87
2019-06-01T21:33:26.571Z,55.83
2019-06-01T21:35:54.809Z,56.43
2019-06-01T21:38:25.711Z,56.41
2019-06-01T21:40:55.454Z,56.40
2019-06-01T21:43:35.012Z,56.46
2019-06-01T21:45:56.451Z,56.31
2019-06-01T21:48:26.121Z,56.42
2019-06-01T21:50:55.742Z,56.59
2019-06-01T21:53:26.630Z,56.52
2019-06-01T21:55:56.499Z,56.37
2019-06-01T21:58:26.681Z,56.77
2019-06-01T22:00:57.132Z,56.55
2019-06-01T22:03:27.398Z,56.50
2019-06-01T22:05:57.209Z,56.30
2019-06-01T22:08:27.566Z,56.72
2019-06-01T22:10:57.457Z,56.75
2019-06-01T22:13:28.768Z,56.63
2019-06-01T22:15:58.645Z,56.87
2019-06-01T22:18:28.268Z,56.92
2019-06-01T22:20:57.893Z,56.79
2019-06-01T22:23:28.165Z,56.12
2019-06-01T22:25:57.934Z,55.81
2019-06-01T22:28:28.643Z,57.50
2019-06-01T22:30:58.382Z,57.50
2019-06-01T22:33:28.813Z,57.35
2019-06-01T22:35:58.619Z,57.66
2019-06-01T22:38:28.632Z,57.54
2019-06-01T22:40:58.266Z,57.59
2019-06-01T22:43:43.465Z,57.70
2019-06-01T22:45:59.251Z,58.09
2019-06-01T22:48:29.265Z,57.56
2019-06-01T22:50:59.076Z,58.51
2019-06-01T22:53:28.869Z,57.42
2019-06-01T22:55:58.522Z,58.41
2019-06-01T22:58:29.479Z,58.26
2019-06-01T23:00:59.538Z,58.74
2019-06-01T23:03:30.204Z,58.89
2019-06-01T23:05:59.962Z,58.69
2019-06-01T23:08:29.592Z,58.78
2019-06-01T23:10:59.233Z,58.81
2019-06-01T23:13:28.856Z,59.09
2019-06-01T23:15:58.502Z,57.70
2019-06-01T23:18:28.136Z,57.55
2019-06-01T23:20:57.776Z,58.86
2019-06-01T23:23:28.064Z,58.79
2019-06-01T23:25:57.842Z,59.84
2019-06-01T23:28:28.551Z,59.72
2019-06-01T23:30:58.406Z,59.65
2019-06-01T23:33:28.893Z,60.13
2019-06-01T23:35:58.648Z,59.64
2019-06-01T23:38:28.748Z,59.97
2019-06-01T23:40:58.491Z,59.71
2019-06-01T23:43:28.894Z,59.03
2019-06-01T23:45:58.645Z,59.63
2019-06-01T23:48:29.318Z,59.94
2019-06-01T23:50:59.014Z,61.37
2019-06-01T23:53:29.596Z,61.54
2019-06-01T23:55:59.327Z,60.75
2019-06-01T23:58:30.131Z,61.10
